sensor_id;sensor_type;location;lat;lon;timestamp;P1;durP1;ratioP1;P2;durP2;ratioP2
17494;SDS011;8864;51.970;4.614;2023-05-29T00:01:09;7.38;;;1.35;;
17494;SDS011;8864;51.970;4.614;2023-05-29T00:03:36;4.50;;;1.52;;
17494;SDS011;8864;51.970;4.614;2023-05-29T00:06:05;6.38;;;1.33;;
17494;SDS011;8864;51.970;4.614;2023-05-29T00:08:32;9.00;;;1.77;;
17494;SDS011;8864;51.970;4.614;2023-05-29T00:10:58;8.60;;;1.77;;
17494;SDS011;8864;51.970;4.614;2023-05-29T00:13:25;5.85;;;1.42;;
17494;SDS011;8864;51.970;4.614;2023-05-29T00:15:52;7.00;;;1.70;;
17494;SDS011;8864;51.970;4.614;2023-05-29T00:18:20;10.00;;;1.60;;
17494;SDS011;8864;51.970;4.614;2023-05-29T00:20:47;6.10;;;1.50;;
17494;SDS011;8864;51.970;4.614;2023-05-29T00:23:19;4.65;;;1.52;;
17494;SDS011;8864;51.970;4.614;2023-05-29T00:25:47;7.28;;;1.73;;
17494;SDS011;8864;51.970;4.614;2023-05-29T00:28:13;6.32;;;1.42;;
17494;SDS011;8864;51.970;4.614;2023-05-29T00:30:42;6.85;;;1.33;;
17494;SDS011;8864;51.970;4.614;2023-05-29T00:33:08;5.97;;;1.60;;
17494;SDS011;8864;51.970;4.614;2023-05-29T00:35:36;6.25;;;1.65;;
17494;SDS011;8864;51.970;4.614;2023-05-29T00:38:03;5.32;;;1.85;;
17494;SDS011;8864;51.970;4.614;2023-05-29T00:40:32;5.55;;;1.50;;
17494;SDS011;8864;51.970;4.614;2023-05-29T00:42:58;7.15;;;1.50;;
17494;SDS011;8864;51.970;4.614;2023-05-29T00:45:25;6.38;;;1.45;;
17494;SDS011;8864;51.970;4.614;2023-05-29T00:47:53;6.13;;;1.50;;
17494;SDS011;8864;51.970;4.614;2023-05-29T00:50:20;4.00;;;1.25;;
17494;SDS011;8864;51.970;4.614;2023-05-29T00:52:50;5.53;;;1.67;;
17494;SDS011;8864;51.970;4.614;2023-05-29T00:55:17;5.68;;;1.40;;
17494;SDS011;8864;51.970;4.614;2023-05-29T00:57:45;4.13;;;1.25;;
17494;SDS011;8864;51.970;4.614;2023-05-29T01:00:13;5.60;;;1.40;;
17494;SDS011;8864;51.970;4.614;2023-05-29T01:02:40;6.60;;;1.40;;
17494;SDS011;8864;51.970;4.614;2023-05-29T01:05:09;6.90;;;1.42;;
17494;SDS011;8864;51.970;4.614;2023-05-29T01:07:37;4.45;;;1.20;;
17494;SDS011;8864;51.970;4.614;2023-05-29T01:10:04;6.88;;;1.50;;
17494;SDS011;8864;51.970;4.614;2023-05-29T01:12:33;5.55;;;1.60;;
17494;SDS011;8864;51.970;4.614;2023-05-29T01:15:16;5.65;;;1.38;;
17494;SDS011;8864;51.970;4.614;2023-05-29T01:17:54;5.65;;;1.38;;
17494;SDS011;8864;51.970;4.614;2023-05-29T01:20:47;6.40;;;1.55;;
17494;SDS011;8864;51.970;4.614;2023-05-29T01:23:33;5.88;;;1.70;;
17494;SDS011;8864;51.970;4.614;2023-05-29T01:26:17;5.10;;;1.67;;
17494;SDS011;8864;51.970;4.614;2023-05-29T01:28:52;3.08;;;1.20;;
17494;SDS011;8864;51.970;4.614;2023-05-29T01:31:23;9.32;;;1.80;;
17494;SDS011;8864;51.970;4.614;2023-05-29T01:33:52;6.28;;;1.60;;
17494;SDS011;8864;51.970;4.614;2023-05-29T01:36:20;5.10;;;1.25;;
17494;SDS011;8864;51.970;4.614;2023-05-29T01:38:47;6.15;;;1.60;;
17494;SDS011;8864;51.970;4.614;2023-05-29T01:41:15;4.85;;;1.30;;
17494;SDS011;8864;51.970;4.614;2023-05-29T01:43:43;7.72;;;1.38;;
17494;SDS011;8864;51.970;4.614;2023-05-29T01:46:12;4.63;;;1.35;;
17494;SDS011;8864;51.970;4.614;2023-05-29T01:48:40;5.18;;;1.15;;
17494;SDS011;8864;51.970;4.614;2023-05-29T01:51:07;5.57;;;1.60;;
17494;SDS011;8864;51.970;4.614;2023-05-29T01:53:36;8.68;;;1.20;;
17494;SDS011;8864;51.970;4.614;2023-05-29T01:56:03;7.57;;;1.42;;
17494;SDS011;8864;51.970;4.614;2023-05-29T01:58:31;8.88;;;1.60;;
17494;SDS011;8864;51.970;4.614;2023-05-29T02:01:00;5.32;;;1.60;;
17494;SDS011;8864;51.970;4.614;2023-05-29T02:03:30;6.60;;;1.35;;
17494;SDS011;8864;51.970;4.614;2023-05-29T02:05:57;6.72;;;1.23;;
17494;SDS011;8864;51.970;4.614;2023-05-29T02:08:25;7.15;;;1.38;;
17494;SDS011;8864;51.970;4.614;2023-05-29T02:10:52;3.95;;;1.20;;
17494;SDS011;8864;51.970;4.614;2023-05-29T02:13:19;6.60;;;1.60;;
17494;SDS011;8864;51.970;4.614;2023-05-29T02:15:46;4.65;;;1.52;;
17494;SDS011;8864;51.970;4.614;2023-05-29T02:18:14;6.20;;;1.40;;
17494;SDS011;8864;51.970;4.614;2023-05-29T02:20:43;6.15;;;1.35;;
17494;SDS011;8864;51.970;4.614;2023-05-29T02:23:11;4.85;;;1.20;;
17494;SDS011;8864;51.970;4.614;2023-05-29T02:25:38;7.95;;;1.40;;
17494;SDS011;8864;51.970;4.614;2023-05-29T02:28:06;3.72;;;1.23;;
17494;SDS011;8864;51.970;4.614;2023-05-29T02:30:34;6.32;;;1.40;;
17494;SDS011;8864;51.970;4.614;2023-05-29T02:33:01;4.82;;;1.00;;
17494;SDS011;8864;51.970;4.614;2023-05-29T02:35:28;6.18;;;1.42;;
17494;SDS011;8864;51.970;4.614;2023-05-29T02:37:57;5.47;;;1.27;;
17494;SDS011;8864;51.970;4.614;2023-05-29T02:40:24;4.32;;;1.20;;
17494;SDS011;8864;51.970;4.614;2023-05-29T02:42:51;3.85;;;1.30;;
17494;SDS011;8864;51.970;4.614;2023-05-29T02:45:19;6.40;;;1.30;;
17494;SDS011;8864;51.970;4.614;2023-05-29T02:47:45;6.53;;;1.08;;
17494;SDS011;8864;51.970;4.614;2023-05-29T02:50:13;5.80;;;1.08;;
17494;SDS011;8864;51.970;4.614;2023-05-29T02:52:40;5.10;;;1.60;;
17494;SDS011;8864;51.970;4.614;2023-05-29T02:55:09;4.53;;;1.20;;
17494;SDS011;8864;51.970;4.614;2023-05-29T02:57:36;6.32;;;1.58;;
17494;SDS011;8864;51.970;4.614;2023-05-29T03:00:03;6.50;;;1.25;;
17494;SDS011;8864;51.970;4.614;2023-05-29T03:02:32;4.28;;;1.27;;
17494;SDS011;8864;51.970;4.614;2023-05-29T03:05:01;4.63;;;1.33;;
17494;SDS011;8864;51.970;4.614;2023-05-29T03:07:28;4.28;;;1.50;;
17494;SDS011;8864;51.970;4.614;2023-05-29T03:09:55;6.53;;;1.58;;
17494;SDS011;8864;51.970;4.614;2023-05-29T03:12:24;4.13;;;1.17;;
17494;SDS011;8864;51.970;4.614;2023-05-29T03:14:52;6.10;;;1.65;;
17494;SDS011;8864;51.970;4.614;2023-05-29T03:17:21;5.18;;;1.25;;
17494;SDS011;8864;51.970;4.614;2023-05-29T03:19:48;5.78;;;1.52;;
17494;SDS011;8864;51.970;4.614;2023-05-29T03:22:16;3.58;;;1.20;;
17494;SDS011;8864;51.970;4.614;2023-05-29T03:24:43;3.30;;;1.30;;
17494;SDS011;8864;51.970;4.614;2023-05-29T03:27:10;5.85;;;1.23;;
17494;SDS011;8864;51.970;4.614;2023-05-29T03:29:39;4.03;;;1.20;;
17494;SDS011;8864;51.970;4.614;2023-05-29T03:32:05;6.18;;;1.23;;
17494;SDS011;8864;51.970;4.614;2023-05-29T03:34:33;7.50;;;1.40;;
17494;SDS011;8864;51.970;4.614;2023-05-29T03:36:59;4.30;;;0.90;;
17494;SDS011;8864;51.970;4.614;2023-05-29T03:39:27;4.22;;;1.00;;
17494;SDS011;8864;51.970;4.614;2023-05-29T03:41:54;6.97;;;1.27;;
17494;SDS011;8864;51.970;4.614;2023-05-29T03:44:20;4.75;;;1.30;;
17494;SDS011;8864;51.970;4.614;2023-05-29T03:46:49;6.10;;;1.50;;
17494;SDS011;8864;51.970;4.614;2023-05-29T03:49:17;7.57;;;1.50;;
17494;SDS011;8864;51.970;4.614;2023-05-29T03:51:44;8.60;;;1.42;;
17494;SDS011;8864;51.970;4.614;2023-05-29T03:54:11;5.50;;;1.30;;
17494;SDS011;8864;51.970;4.614;2023-05-29T03:56:37;4.15;;;1.00;;
17494;SDS011;8864;51.970;4.614;2023-05-29T03:59:04;4.38;;;1.10;;
17494;SDS011;8864;51.970;4.614;2023-05-29T04:01:32;5.40;;;1.42;;
17494;SDS011;8864;51.970;4.614;2023-05-29T04:04:00;5.30;;;1.38;;
17494;SDS011;8864;51.970;4.614;2023-05-29T04:06:27;4.50;;;1.25;;
17494;SDS011;8864;51.970;4.614;2023-05-29T04:08:54;8.00;;;1.08;;
17494;SDS011;8864;51.970;4.614;2023-05-29T04:11:20;6.40;;;1.40;;
17494;SDS011;8864;51.970;4.614;2023-05-29T04:13:47;6.97;;;1.52;;
17494;SDS011;8864;51.970;4.614;2023-05-29T04:16:14;3.30;;;1.05;;
17494;SDS011;8864;51.970;4.614;2023-05-29T04:18:41;5.60;;;1.00;;
17494;SDS011;8864;51.970;4.614;2023-05-29T04:21:10;7.55;;;1.40;;
17494;SDS011;8864;51.970;4.614;2023-05-29T04:23:37;4.90;;;1.02;;
17494;SDS011;8864;51.970;4.614;2023-05-29T04:26:04;3.55;;;1.08;;
17494;SDS011;8864;51.970;4.614;2023-05-29T04:28:31;5.57;;;1.27;;
17494;SDS011;8864;51.970;4.614;2023-05-29T04:30:58;8.23;;;1.48;;
17494;SDS011;8864;51.970;4.614;2023-05-29T04:33:25;4.90;;;1.38;;
17494;SDS011;8864;51.970;4.614;2023-05-29T04:35:53;5.40;;;1.05;;
17494;SDS011;8864;51.970;4.614;2023-05-29T04:38:21;4.63;;;1.10;;
17494;SDS011;8864;51.970;4.614;2023-05-29T04:40:50;8.20;;;1.05;;
17494;SDS011;8864;51.970;4.614;2023-05-29T04:43:17;4.25;;;1.35;;
17494;SDS011;8864;51.970;4.614;2023-05-29T04:45:44;6.45;;;1.38;;
17494;SDS011;8864;51.970;4.614;2023-05-29T04:48:13;4.50;;;1.20;;
17494;SDS011;8864;51.970;4.614;2023-05-29T04:50:41;3.95;;;1.10;;
17494;SDS011;8864;51.970;4.614;2023-05-29T04:53:09;4.53;;;1.10;;
17494;SDS011;8864;51.970;4.614;2023-05-29T04:55:37;4.82;;;1.02;;
17494;SDS011;8864;51.970;4.614;2023-05-29T04:58:04;7.05;;;1.20;;
17494;SDS011;8864;51.970;4.614;2023-05-29T05:00:31;7.15;;;1.45;;
17494;SDS011;8864;51.970;4.614;2023-05-29T05:02:58;6.53;;;1.40;;
17494;SDS011;8864;51.970;4.614;2023-05-29T05:05:25;6.43;;;1.25;;
17494;SDS011;8864;51.970;4.614;2023-05-29T05:07:52;6.32;;;1.30;;
17494;SDS011;8864;51.970;4.614;2023-05-29T05:10:19;4.55;;;1.10;;
17494;SDS011;8864;51.970;4.614;2023-05-29T05:12:48;5.25;;;1.10;;
17494;SDS011;8864;51.970;4.614;2023-05-29T05:15:15;5.10;;;1.40;;
17494;SDS011;8864;51.970;4.614;2023-05-29T05:17:41;4.68;;;1.25;;
17494;SDS011;8864;51.970;4.614;2023-05-29T05:20:09;2.97;;;1.10;;
17494;SDS011;8864;51.970;4.614;2023-05-29T05:22:36;7.43;;;1.50;;
17494;SDS011;8864;51.970;4.614;2023-05-29T05:25:04;5.82;;;1.73;;
17494;SDS011;8864;51.970;4.614;2023-05-29T05:27:32;6.82;;;1.48;;
17494;SDS011;8864;51.970;4.614;2023-05-29T05:30:01;5.68;;;1.20;;
17494;SDS011;8864;51.970;4.614;2023-05-29T05:32:28;8.57;;;1.40;;
17494;SDS011;8864;51.970;4.614;2023-05-29T05:34:55;4.38;;;1.45;;
17494;SDS011;8864;51.970;4.614;2023-05-29T05:37:22;7.50;;;1.50;;
17494;SDS011;8864;51.970;4.614;2023-05-29T05:39:49;5.32;;;1.20;;
17494;SDS011;8864;51.970;4.614;2023-05-29T05:42:18;5.65;;;1.48;;
17494;SDS011;8864;51.970;4.614;2023-05-29T05:44:45;5.65;;;1.27;;
17494;SDS011;8864;51.970;4.614;2023-05-29T05:47:14;9.45;;;1.48;;
17494;SDS011;8864;51.970;4.614;2023-05-29T05:49:41;5.13;;;1.10;;
17494;SDS011;8864;51.970;4.614;2023-05-29T05:52:08;6.38;;;1.35;;
17494;SDS011;8864;51.970;4.614;2023-05-29T05:54:35;6.47;;;1.42;;
17494;SDS011;8864;51.970;4.614;2023-05-29T05:57:03;5.07;;;1.30;;
17494;SDS011;8864;51.970;4.614;2023-05-29T05:59:32;9.27;;;1.50;;
17494;SDS011;8864;51.970;4.614;2023-05-29T06:01:59;7.35;;;1.42;;
17494;SDS011;8864;51.970;4.614;2023-05-29T06:04:28;5.78;;;1.20;;
17494;SDS011;8864;51.970;4.614;2023-05-29T06:06:55;9.90;;;1.55;;
17494;SDS011;8864;51.970;4.614;2023-05-29T06:09:22;6.03;;;1.40;;
17494;SDS011;8864;51.970;4.614;2023-05-29T06:11:50;10.52;;;2.10;;
17494;SDS011;8864;51.970;4.614;2023-05-29T06:14:17;5.88;;;1.60;;
17494;SDS011;8864;51.970;4.614;2023-05-29T06:16:43;7.43;;;1.58;;
17494;SDS011;8864;51.970;4.614;2023-05-29T06:19:11;7.10;;;1.95;;
17494;SDS011;8864;51.970;4.614;2023-05-29T06:21:41;6.43;;;1.45;;
17494;SDS011;8864;51.970;4.614;2023-05-29T06:24:08;8.85;;;1.70;;
17494;SDS011;8864;51.970;4.614;2023-05-29T06:26:35;6.60;;;1.65;;
17494;SDS011;8864;51.970;4.614;2023-05-29T06:29:02;5.53;;;1.40;;
17494;SDS011;8864;51.970;4.614;2023-05-29T06:31:31;7.10;;;1.30;;
17494;SDS011;8864;51.970;4.614;2023-05-29T06:33:59;6.68;;;1.73;;
17494;SDS011;8864;51.970;4.614;2023-05-29T06:36:26;9.75;;;1.60;;
17494;SDS011;8864;51.970;4.614;2023-05-29T06:38:54;8.13;;;2.00;;
17494;SDS011;8864;51.970;4.614;2023-05-29T06:41:21;6.25;;;1.80;;
17494;SDS011;8864;51.970;4.614;2023-05-29T06:43:48;10.65;;;2.47;;
17494;SDS011;8864;51.970;4.614;2023-05-29T06:46:16;8.65;;;2.20;;
17494;SDS011;8864;51.970;4.614;2023-05-29T06:48:43;10.43;;;2.13;;
17494;SDS011;8864;51.970;4.614;2023-05-29T06:51:10;17.15;;;2.35;;
17494;SDS011;8864;51.970;4.614;2023-05-29T06:53:37;16.65;;;3.17;;
17494;SDS011;8864;51.970;4.614;2023-05-29T06:56:06;24.05;;;2.90;;
17494;SDS011;8864;51.970;4.614;2023-05-29T06:58:33;22.02;;;2.58;;
17494;SDS011;8864;51.970;4.614;2023-05-29T07:01:00;12.05;;;2.40;;
17494;SDS011;8864;51.970;4.614;2023-05-29T07:03:27;19.40;;;2.50;;
17494;SDS011;8864;51.970;4.614;2023-05-29T07:05:54;24.15;;;2.97;;
17494;SDS011;8864;51.970;4.614;2023-05-29T07:08:22;41.85;;;5.40;;
17494;SDS011;8864;51.970;4.614;2023-05-29T07:10:49;27.02;;;3.72;;
17494;SDS011;8864;51.970;4.614;2023-05-29T07:13:17;21.65;;;3.10;;
17494;SDS011;8864;51.970;4.614;2023-05-29T07:15:44;19.20;;;2.53;;
17494;SDS011;8864;51.970;4.614;2023-05-29T07:18:11;20.45;;;3.00;;
17494;SDS011;8864;51.970;4.614;2023-05-29T07:20:38;25.45;;;3.40;;
17494;SDS011;8864;51.970;4.614;2023-05-29T07:23:05;14.15;;;2.30;;
17494;SDS011;8864;51.970;4.614;2023-05-29T07:25:32;13.88;;;2.42;;
17494;SDS011;8864;51.970;4.614;2023-05-29T07:27:59;11.25;;;2.60;;
17494;SDS011;8864;51.970;4.614;2023-05-29T07:30:28;11.77;;;2.00;;
17494;SDS011;8864;51.970;4.614;2023-05-29T07:32:54;14.90;;;2.70;;
17494;SDS011;8864;51.970;4.614;2023-05-29T07:35:21;11.93;;;2.58;;
17494;SDS011;8864;51.970;4.614;2023-05-29T07:37:48;11.65;;;2.45;;
17494;SDS011;8864;51.970;4.614;2023-05-29T07:40:17;19.48;;;2.45;;
17494;SDS011;8864;51.970;4.614;2023-05-29T07:42:44;15.32;;;2.33;;
17494;SDS011;8864;51.970;4.614;2023-05-29T07:45:11;8.48;;;1.60;;
17494;SDS011;8864;51.970;4.614;2023-05-29T07:47:40;11.93;;;1.70;;
17494;SDS011;8864;51.970;4.614;2023-05-29T07:50:07;12.35;;;2.00;;
17494;SDS011;8864;51.970;4.614;2023-05-29T07:52:35;24.13;;;2.10;;
17494;SDS011;8864;51.970;4.614;2023-05-29T07:55:03;9.13;;;2.08;;
17494;SDS011;8864;51.970;4.614;2023-05-29T07:57:30;9.57;;;1.88;;
17494;SDS011;8864;51.970;4.614;2023-05-29T07:59:58;9.38;;;1.70;;
17494;SDS011;8864;51.970;4.614;2023-05-29T08:02:25;7.32;;;1.63;;
17494;SDS011;8864;51.970;4.614;2023-05-29T08:04:54;7.40;;;1.67;;
17494;SDS011;8864;51.970;4.614;2023-05-29T08:07:21;9.13;;;1.90;;
17494;SDS011;8864;51.970;4.614;2023-05-29T08:09:48;6.82;;;1.85;;
17494;SDS011;8864;51.970;4.614;2023-05-29T08:12:14;8.27;;;1.85;;
17494;SDS011;8864;51.970;4.614;2023-05-29T08:14:41;10.55;;;1.70;;
17494;SDS011;8864;51.970;4.614;2023-05-29T08:17:08;9.45;;;1.95;;
17494;SDS011;8864;51.970;4.614;2023-05-29T08:19:35;7.05;;;1.50;;
17494;SDS011;8864;51.970;4.614;2023-05-29T08:22:04;5.50;;;1.45;;
17494;SDS011;8864;51.970;4.614;2023-05-29T08:24:31;8.85;;;1.55;;
17494;SDS011;8864;51.970;4.614;2023-05-29T08:26:59;7.28;;;1.73;;
17494;SDS011;8864;51.970;4.614;2023-05-29T08:29:26;13.50;;;1.85;;
17494;SDS011;8864;51.970;4.614;2023-05-29T08:31:53;10.20;;;1.90;;
17494;SDS011;8864;51.970;4.614;2023-05-29T08:34:20;12.20;;;1.48;;
17494;SDS011;8864;51.970;4.614;2023-05-29T08:36:46;7.85;;;1.80;;
17494;SDS011;8864;51.970;4.614;2023-05-29T08:39:18;9.80;;;2.08;;
17494;SDS011;8864;51.970;4.614;2023-05-29T08:41:46;8.30;;;1.45;;
17494;SDS011;8864;51.970;4.614;2023-05-29T08:44:19;10.63;;;1.65;;
17494;SDS011;8864;51.970;4.614;2023-05-29T08:46:49;8.38;;;2.22;;
17494;SDS011;8864;51.970;4.614;2023-05-29T08:49:21;5.35;;;1.60;;
17494;SDS011;8864;51.970;4.614;2023-05-29T08:51:49;5.65;;;1.75;;
17494;SDS011;8864;51.970;4.614;2023-05-29T08:54:25;11.68;;;2.00;;
17494;SDS011;8864;51.970;4.614;2023-05-29T08:56:53;10.05;;;1.90;;
17494;SDS011;8864;51.970;4.614;2023-05-29T08:59:19;10.68;;;2.00;;
17494;SDS011;8864;51.970;4.614;2023-05-29T09:01:47;7.65;;;1.42;;
17494;SDS011;8864;51.970;4.614;2023-05-29T09:04:14;8.15;;;1.40;;
17494;SDS011;8864;51.970;4.614;2023-05-29T09:06:43;6.35;;;1.52;;
17494;SDS011;8864;51.970;4.614;2023-05-29T09:09:13;6.28;;;1.75;;
17494;SDS011;8864;51.970;4.614;2023-05-29T09:11:43;7.82;;;1.80;;
17494;SDS011;8864;51.970;4.614;2023-05-29T09:14:11;8.18;;;1.55;;
17494;SDS011;8864;51.970;4.614;2023-05-29T09:16:57;14.23;;;1.98;;
17494;SDS011;8864;51.970;4.614;2023-05-29T09:19:25;10.73;;;2.00;;
17494;SDS011;8864;51.970;4.614;2023-05-29T09:21:52;8.82;;;2.15;;
17494;SDS011;8864;51.970;4.614;2023-05-29T09:24:27;8.15;;;1.85;;
17494;SDS011;8864;51.970;4.614;2023-05-29T09:26:55;6.60;;;1.75;;
17494;SDS011;8864;51.970;4.614;2023-05-29T09:29:24;14.70;;;1.70;;
17494;SDS011;8864;51.970;4.614;2023-05-29T09:31:51;9.30;;;2.00;;
17494;SDS011;8864;51.970;4.614;2023-05-29T09:34:18;5.25;;;1.45;;
17494;SDS011;8864;51.970;4.614;2023-05-29T09:36:48;9.68;;;1.73;;
17494;SDS011;8864;51.970;4.614;2023-05-29T09:39:16;6.93;;;1.77;;
17494;SDS011;8864;51.970;4.614;2023-05-29T09:41:43;6.47;;;1.77;;
17494;SDS011;8864;51.970;4.614;2023-05-29T09:44:13;7.35;;;1.75;;
17494;SDS011;8864;51.970;4.614;2023-05-29T09:46:41;7.57;;;1.73;;
17494;SDS011;8864;51.970;4.614;2023-05-29T09:49:12;12.77;;;2.13;;
17494;SDS011;8864;51.970;4.614;2023-05-29T09:51:41;6.10;;;1.83;;
17494;SDS011;8864;51.970;4.614;2023-05-29T09:54:13;8.25;;;1.60;;
17494;SDS011;8864;51.970;4.614;2023-05-29T09:56:42;5.32;;;1.30;;
17494;SDS011;8864;51.970;4.614;2023-05-29T09:59:10;6.32;;;1.63;;
17494;SDS011;8864;51.970;4.614;2023-05-29T10:01:40;9.45;;;2.10;;
17494;SDS011;8864;51.970;4.614;2023-05-29T10:04:09;11.82;;;1.92;;
17494;SDS011;8864;51.970;4.614;2023-05-29T10:06:36;7.75;;;1.70;;
17494;SDS011;8864;51.970;4.614;2023-05-29T10:09:05;7.15;;;1.77;;
17494;SDS011;8864;51.970;4.614;2023-05-29T10:11:36;10.65;;;2.08;;
17494;SDS011;8864;51.970;4.614;2023-05-29T10:14:07;7.32;;;2.38;;
17494;SDS011;8864;51.970;4.614;2023-05-29T10:16:41;14.52;;;2.75;;
17494;SDS011;8864;51.970;4.614;2023-05-29T10:19:12;16.95;;;2.53;;
17494;SDS011;8864;51.970;4.614;2023-05-29T10:21:42;18.70;;;2.20;;
17494;SDS011;8864;51.970;4.614;2023-05-29T10:24:09;17.52;;;2.55;;
17494;SDS011;8864;51.970;4.614;2023-05-29T10:26:39;7.88;;;2.13;;
17494;SDS011;8864;51.970;4.614;2023-05-29T10:29:11;10.05;;;1.77;;
17494;SDS011;8864;51.970;4.614;2023-05-29T10:31:48;14.48;;;2.10;;
17494;SDS011;8864;51.970;4.614;2023-05-29T10:34:29;13.10;;;2.08;;
17494;SDS011;8864;51.970;4.614;2023-05-29T10:37:02;7.68;;;1.95;;
17494;SDS011;8864;51.970;4.614;2023-05-29T10:39:34;6.45;;;1.63;;
17494;SDS011;8864;51.970;4.614;2023-05-29T10:42:01;11.27;;;1.92;;
17494;SDS011;8864;51.970;4.614;2023-05-29T10:44:49;3.53;;;1.45;;
17494;SDS011;8864;51.970;4.614;2023-05-29T10:47:23;7.70;;;1.67;;
17494;SDS011;8864;51.970;4.614;2023-05-29T10:49:50;7.60;;;2.00;;
17494;SDS011;8864;51.970;4.614;2023-05-29T10:52:18;8.05;;;2.00;;
17494;SDS011;8864;51.970;4.614;2023-05-29T10:54:50;5.00;;;1.42;;
17494;SDS011;8864;51.970;4.614;2023-05-29T10:57:20;6.50;;;1.67;;
17494;SDS011;8864;51.970;4.614;2023-05-29T10:59:56;10.63;;;2.08;;
17494;SDS011;8864;51.970;4.614;2023-05-29T11:02:26;5.28;;;1.55;;
17494;SDS011;8864;51.970;4.614;2023-05-29T11:07:50;10.15;;;1.88;;
17494;SDS011;8864;51.970;4.614;2023-05-29T11:13:22;5.60;;;1.50;;
17494;SDS011;8864;51.970;4.614;2023-05-29T11:16:03;4.75;;;1.38;;
17494;SDS011;8864;51.970;4.614;2023-05-29T11:18:33;7.00;;;1.90;;
17494;SDS011;8864;51.970;4.614;2023-05-29T11:21:06;8.38;;;1.95;;
17494;SDS011;8864;51.970;4.614;2023-05-29T11:23:49;7.68;;;1.80;;
17494;SDS011;8864;51.970;4.614;2023-05-29T11:26:17;8.23;;;1.70;;
17494;SDS011;8864;51.970;4.614;2023-05-29T11:28:46;7.35;;;1.75;;
17494;SDS011;8864;51.970;4.614;2023-05-29T11:31:14;11.85;;;2.03;;
17494;SDS011;8864;51.970;4.614;2023-05-29T11:33:47;9.13;;;1.77;;
17494;SDS011;8864;51.970;4.614;2023-05-29T11:36:16;10.18;;;2.03;;
17494;SDS011;8864;51.970;4.614;2023-05-29T11:38:44;11.82;;;1.73;;
17494;SDS011;8864;51.970;4.614;2023-05-29T11:41:11;7.18;;;2.00;;
17494;SDS011;8864;51.970;4.614;2023-05-29T11:43:38;6.85;;;1.98;;
17494;SDS011;8864;51.970;4.614;2023-05-29T11:46:18;11.55;;;1.95;;
17494;SDS011;8864;51.970;4.614;2023-05-29T11:48:48;7.13;;;1.98;;
17494;SDS011;8864;51.970;4.614;2023-05-29T11:51:15;30.75;;;2.60;;
17494;SDS011;8864;51.970;4.614;2023-05-29T11:53:42;10.23;;;2.55;;
17494;SDS011;8864;51.970;4.614;2023-05-29T11:56:10;15.23;;;2.10;;
17494;SDS011;8864;51.970;4.614;2023-05-29T11:58:37;13.65;;;2.80;;
17494;SDS011;8864;51.970;4.614;2023-05-29T12:01:04;11.32;;;2.33;;
17494;SDS011;8864;51.970;4.614;2023-05-29T12:03:36;10.05;;;2.20;;
17494;SDS011;8864;51.970;4.614;2023-05-29T12:06:06;10.02;;;2.78;;
17494;SDS011;8864;51.970;4.614;2023-05-29T12:08:35;11.70;;;2.20;;
17494;SDS011;8864;51.970;4.614;2023-05-29T12:11:03;8.18;;;2.25;;
17494;SDS011;8864;51.970;4.614;2023-05-29T12:13:31;13.05;;;2.80;;
17494;SDS011;8864;51.970;4.614;2023-05-29T12:15:59;6.25;;;1.98;;
17494;SDS011;8864;51.970;4.614;2023-05-29T12:18:28;14.57;;;2.40;;
17494;SDS011;8864;51.970;4.614;2023-05-29T12:20:59;13.07;;;2.17;;
17494;SDS011;8864;51.970;4.614;2023-05-29T12:23:28;13.40;;;2.92;;
17494;SDS011;8864;51.970;4.614;2023-05-29T12:25:55;15.23;;;2.72;;
17494;SDS011;8864;51.970;4.614;2023-05-29T12:28:23;15.18;;;2.38;;
17494;SDS011;8864;51.970;4.614;2023-05-29T12:30:50;13.85;;;2.70;;
17494;SDS011;8864;51.970;4.614;2023-05-29T12:33:24;11.43;;;2.08;;
17494;SDS011;8864;51.970;4.614;2023-05-29T12:35:53;10.88;;;2.03;;
17494;SDS011;8864;51.970;4.614;2023-05-29T12:38:20;7.43;;;2.08;;
17494;SDS011;8864;51.970;4.614;2023-05-29T12:40:50;12.85;;;2.65;;
17494;SDS011;8864;51.970;4.614;2023-05-29T12:43:18;12.48;;;2.53;;
17494;SDS011;8864;51.970;4.614;2023-05-29T12:45:45;8.20;;;2.28;;
17494;SDS011;8864;51.970;4.614;2023-05-29T12:48:20;12.93;;;2.28;;
17494;SDS011;8864;51.970;4.614;2023-05-29T12:50:48;13.85;;;2.67;;
17494;SDS011;8864;51.970;4.614;2023-05-29T12:53:15;11.43;;;3.05;;
17494;SDS011;8864;51.970;4.614;2023-05-29T12:55:43;9.88;;;2.28;;
17494;SDS011;8864;51.970;4.614;2023-05-29T12:58:12;10.40;;;2.35;;
17494;SDS011;8864;51.970;4.614;2023-05-29T13:00:41;11.85;;;2.70;;
17494;SDS011;8864;51.970;4.614;2023-05-29T13:03:09;7.97;;;1.80;;
17494;SDS011;8864;51.970;4.614;2023-05-29T13:05:36;11.30;;;2.42;;
17494;SDS011;8864;51.970;4.614;2023-05-29T13:08:04;9.77;;;2.40;;
17494;SDS011;8864;51.970;4.614;2023-05-29T13:10:32;8.88;;;2.03;;
17494;SDS011;8864;51.970;4.614;2023-05-29T13:12:59;6.85;;;1.80;;
17494;SDS011;8864;51.970;4.614;2023-05-29T13:15:28;10.82;;;2.70;;
17494;SDS011;8864;51.970;4.614;2023-05-29T13:17:55;10.07;;;2.47;;
17494;SDS011;8864;51.970;4.614;2023-05-29T13:20:23;13.43;;;2.58;;
17494;SDS011;8864;51.970;4.614;2023-05-29T13:22:50;28.80;;;3.00;;
17494;SDS011;8864;51.970;4.614;2023-05-29T13:25:19;17.05;;;2.08;;
17494;SDS011;8864;51.970;4.614;2023-05-29T13:27:47;20.20;;;2.65;;
17494;SDS011;8864;51.970;4.614;2023-05-29T13:30:14;13.60;;;3.28;;
17494;SDS011;8864;51.970;4.614;2023-05-29T13:32:43;13.73;;;2.67;;
17494;SDS011;8864;51.970;4.614;2023-05-29T13:35:10;12.90;;;2.90;;
17494;SDS011;8864;51.970;4.614;2023-05-29T13:37:37;12.68;;;2.55;;
17494;SDS011;8864;51.970;4.614;2023-05-29T13:40:05;12.35;;;2.75;;
17494;SDS011;8864;51.970;4.614;2023-05-29T13:42:34;20.38;;;3.03;;
17494;SDS011;8864;51.970;4.614;2023-05-29T13:45:01;13.73;;;3.00;;
17494;SDS011;8864;51.970;4.614;2023-05-29T13:47:31;16.70;;;2.90;;
17494;SDS011;8864;51.970;4.614;2023-05-29T13:49:59;15.27;;;2.92;;
17494;SDS011;8864;51.970;4.614;2023-05-29T13:52:26;20.90;;;2.70;;
17494;SDS011;8864;51.970;4.614;2023-05-29T13:54:53;13.00;;;2.65;;
17494;SDS011;8864;51.970;4.614;2023-05-29T13:57:23;16.50;;;2.60;;
17494;SDS011;8864;51.970;4.614;2023-05-29T13:59:49;16.67;;;2.45;;
17494;SDS011;8864;51.970;4.614;2023-05-29T14:02:16;11.65;;;2.78;;
17494;SDS011;8864;51.970;4.614;2023-05-29T14:04:43;12.63;;;2.10;;
17494;SDS011;8864;51.970;4.614;2023-05-29T14:07:11;15.90;;;2.60;;
17494;SDS011;8864;51.970;4.614;2023-05-29T14:09:38;12.13;;;2.40;;
17494;SDS011;8864;51.970;4.614;2023-05-29T14:12:06;14.30;;;2.95;;
17494;SDS011;8864;51.970;4.614;2023-05-29T14:14:33;14.55;;;2.95;;
17494;SDS011;8864;51.970;4.614;2023-05-29T14:17:00;12.27;;;3.08;;
17494;SDS011;8864;51.970;4.614;2023-05-29T14:19:27;23.55;;;3.00;;
17494;SDS011;8864;51.970;4.614;2023-05-29T14:21:54;13.82;;;2.78;;
17494;SDS011;8864;51.970;4.614;2023-05-29T14:24:23;18.15;;;2.40;;
17494;SDS011;8864;51.970;4.614;2023-05-29T14:26:50;11.65;;;2.60;;
17494;SDS011;8864;51.970;4.614;2023-05-29T14:29:17;15.90;;;2.92;;
17494;SDS011;8864;51.970;4.614;2023-05-29T14:31:44;19.50;;;3.05;;
17494;SDS011;8864;51.970;4.614;2023-05-29T14:34:11;19.55;;;2.97;;
17494;SDS011;8864;51.970;4.614;2023-05-29T14:36:38;16.13;;;2.90;;
17494;SDS011;8864;51.970;4.614;2023-05-29T14:39:06;17.38;;;3.00;;
17494;SDS011;8864;51.970;4.614;2023-05-29T14:41:34;16.02;;;3.13;;
17494;SDS011;8864;51.970;4.614;2023-05-29T14:44:02;18.33;;;3.95;;
17494;SDS011;8864;51.970;4.614;2023-05-29T14:46:29;18.02;;;3.75;;
17494;SDS011;8864;51.970;4.614;2023-05-29T14:48:57;28.13;;;4.13;;
17494;SDS011;8864;51.970;4.614;2023-05-29T14:51:24;22.35;;;3.97;;
17494;SDS011;8864;51.970;4.614;2023-05-29T14:53:51;17.63;;;3.30;;
17494;SDS011;8864;51.970;4.614;2023-05-29T14:56:18;32.88;;;4.65;;
17494;SDS011;8864;51.970;4.614;2023-05-29T14:58:47;30.45;;;3.55;;
17494;SDS011;8864;51.970;4.614;2023-05-29T15:01:14;23.08;;;3.40;;
17494;SDS011;8864;51.970;4.614;2023-05-29T15:03:41;19.83;;;2.67;;
17494;SDS011;8864;51.970;4.614;2023-05-29T15:06:08;16.63;;;2.83;;
17494;SDS011;8864;51.970;4.614;2023-05-29T15:08:36;21.75;;;3.47;;